createdAt,value
2019-03-31T00:00:03.921Z,100809.67
2019-03-31T00:00:38.890Z,100811.03
2019-03-31T00:01:10.796Z,100817.61
2019-03-31T00:01:43.846Z,100813.67
2019-03-31T00:02:16.940Z,100811.45
2019-03-31T00:02:48.138Z,100816.23
2019-03-31T00:03:19.346Z,100807.05
2019-03-31T00:03:50.468Z,100802.16
2019-03-31T00:04:21.675Z,100797.79
2019-03-31T00:04:52.896Z,100799.52
2019-03-31T00:05:24.112Z,100792.91
2019-03-31T00:05:55.281Z,100802.05
2019-03-31T00:06:26.499Z,100794.17
2019-03-31T00:06:57.652Z,100792.00
2019-03-31T00:07:28.938Z,100797.26
2019-03-31T00:08:00.169Z,100791.06
2019-03-31T00:08:31.363Z,100799.78
2019-03-31T00:09:05.243Z,100798.03
2019-03-31T00:09:36.523Z,100798.03
2019-03-31T00:10:07.687Z,100793.16
2019-03-31T00:10:38.868Z,100797.09
2019-03-31T00:11:10.026Z,100796.20
2019-03-31T00:11:41.169Z,100800.56
2019-03-31T00:12:12.335Z,100788.27
2019-03-31T00:12:44.506Z,100791.31
2019-03-31T00:13:15.651Z,100790.84
2019-03-31T00:13:46.813Z,100796.09
2019-03-31T00:14:17.977Z,100792.16
2019-03-31T00:14:49.166Z,100792.16
2019-03-31T00:15:20.350Z,100793.46
2019-03-31T00:15:51.487Z,100794.30
2019-03-31T00:16:22.729Z,100792.63
2019-03-31T00:16:53.953Z,100792.16
2019-03-31T00:17:26.107Z,100789.99
2019-03-31T00:17:57.262Z,100785.59
2019-03-31T00:18:28.572Z,100790.89
2019-03-31T00:18:59.729Z,100795.72
2019-03-31T00:19:30.885Z,100789.16
2019-03-31T00:20:03.917Z,100791.36
2019-03-31T00:20:35.096Z,100795.25
2019-03-31T00:21:06.252Z,100790.36
2019-03-31T00:21:38.952Z,100790.35
2019-03-31T00:22:10.115Z,100789.45
2019-03-31T00:22:41.334Z,100794.23
2019-03-31T00:23:12.488Z,100794.66
2019-03-31T00:23:43.694Z,100788.97
2019-03-31T00:24:14.841Z,100787.19
2019-03-31T00:24:46.083Z,100789.77
2019-03-31T00:25:17.275Z,100793.69
2019-03-31T00:25:48.592Z,100793.63
2019-03-31T00:26:19.746Z,100790.96
2019-03-31T00:26:50.961Z,100784.33
2019-03-31T00:27:22.129Z,100791.73
2019-03-31T00:27:53.349Z,100787.31
2019-03-31T00:28:24.511Z,100786.00
2019-03-31T00:28:55.711Z,100785.58
2019-03-31T00:29:26.872Z,100789.53
2019-03-31T00:29:58.068Z,100792.16
2019-03-31T00:30:29.235Z,100788.22
2019-03-31T00:31:00.414Z,100790.42
2019-03-31T00:31:31.583Z,100789.53
2019-03-31T00:32:02.880Z,100790.00
2019-03-31T00:32:34.055Z,100789.53
2019-03-31T00:33:05.222Z,100785.59
2019-03-31T00:33:36.395Z,100780.77
2019-03-31T00:34:07.581Z,100785.59
2019-03-31T00:34:38.753Z,100777.72
2019-03-31T00:35:09.937Z,100782.55
2019-03-31T00:35:41.121Z,100780.81
2019-03-31T00:36:12.293Z,100779.55
2019-03-31T00:36:43.477Z,100784.81
2019-03-31T00:37:14.660Z,100784.81
2019-03-31T00:37:45.833Z,100784.40
2019-03-31T00:38:17.041Z,100775.14
2019-03-31T00:38:48.243Z,100782.59
2019-03-31T00:39:19.416Z,100778.19
2019-03-31T00:39:50.594Z,100773.36
2019-03-31T00:40:21.767Z,100776.41
2019-03-31T00:40:52.968Z,100776.83
2019-03-31T00:41:24.135Z,100777.72
2019-03-31T00:41:55.627Z,100771.58
2019-03-31T00:42:26.798Z,100770.72
2019-03-31T00:42:58.030Z,100773.34
2019-03-31T00:43:29.197Z,100754.81
2019-03-31T00:44:00.394Z,100777.66
2019-03-31T00:44:31.546Z,100768.42
2019-03-31T00:45:05.456Z,100763.17
2019-03-31T00:45:36.631Z,100769.23
2019-03-31T00:46:07.840Z,100769.23
2019-03-31T00:46:39.012Z,100769.19
2019-03-31T00:47:10.218Z,100768.30
2019-03-31T00:47:41.378Z,100768.30
2019-03-31T00:48:12.602Z,100773.55
2019-03-31T00:48:43.841Z,100769.59
2019-03-31T00:49:15.076Z,100771.33
2019-03-31T00:49:46.252Z,100775.73
2019-03-31T00:50:17.447Z,100766.13
2019-03-31T00:50:48.653Z,100773.11
2019-03-31T00:51:19.820Z,100765.66
2019-03-31T00:51:51.000Z,100769.17
2019-03-31T00:52:22.208Z,100766.55
2019-03-31T00:52:53.392Z,100772.22
2019-03-31T00:53:24.581Z,100767.39
2019-03-31T00:53:55.757Z,100775.21
2019-03-31T00:54:27.839Z,100774.32
2019-03-31T00:54:59.219Z,100768.64
2019-03-31T00:55:30.394Z,100766.43
2019-03-31T00:56:01.569Z,100768.58
2019-03-31T00:56:32.744Z,100766.38
2019-03-31T00:57:03.926Z,100768.53
2019-03-31T00:57:35.097Z,100769.41
2019-03-31T00:58:06.273Z,100764.53
2019-03-31T00:58:37.527Z,100760.59
2019-03-31T00:59:08.768Z,100759.23
2019-03-31T00:59:39.986Z,100759.23
2019-03-31T01:00:13.160Z,100766.27
2019-03-31T01:00:46.250Z,100767.55
2019-03-31T01:01:35.657Z,100760.89
2019-03-31T01:02:00.432Z,100762.63
2019-03-31T01:02:33.254Z,100759.56
2019-03-31T01:03:04.680Z,100756.89
2019-03-31T01:03:37.006Z,100758.63
2019-03-31T01:04:08.284Z,100752.02
2019-03-31T01:04:39.515Z,100754.63
2019-03-31T01:05:10.739Z,100756.42
2019-03-31T01:05:42.072Z,100761.19
2019-03-31T01:06:13.726Z,100758.13
2019-03-31T01:06:45.158Z,100760.77
2019-03-31T01:07:16.396Z,100751.58
2019-03-31T01:07:47.624Z,100755.45
2019-03-31T01:08:18.866Z,100754.56
2019-03-31T01:08:50.038Z,100751.05
2019-03-31T01:09:24.820Z,100751.94
2019-03-31T01:09:56.342Z,100754.98
2019-03-31T01:10:27.527Z,100752.78
2019-03-31T01:10:58.789Z,100747.53
2019-03-31T01:11:29.978Z,100745.78
2019-03-31T01:12:01.228Z,100747.52
2019-03-31T01:12:32.457Z,100744.42
2019-03-31T01:13:04.398Z,100747.94
2019-03-31T01:13:35.700Z,100746.58
2019-03-31T01:14:08.946Z,100747.89
2019-03-31T01:14:40.255Z,100747.00
2019-03-31T01:15:13.283Z,100749.18
2019-03-31T01:15:44.639Z,100716.05
2019-03-31T01:16:15.777Z,100747.39
2019-03-31T01:16:47.007Z,100743.94
2019-03-31T01:17:18.939Z,100744.79
2019-03-31T01:17:50.467Z,100743.47
2019-03-31T01:18:21.617Z,100748.72
2019-03-31T01:18:52.819Z,100750.93
2019-03-31T01:19:24.203Z,100744.79
2019-03-31T01:19:56.427Z,100744.38
2019-03-31T01:20:27.566Z,100744.38
2019-03-31T01:20:58.781Z,100744.42
2019-03-31T01:21:30.953Z,100743.53
2019-03-31T01:22:02.157Z,100742.22
2019-03-31T01:22:33.307Z,100718.30
2019-03-31T01:23:04.904Z,100741.38
2019-03-31T01:23:36.053Z,100737.45
2019-03-31T01:24:07.261Z,100738.76
2019-03-31T01:24:38.401Z,100728.56
2019-03-31T01:25:09.719Z,100736.61
2019-03-31T01:25:41.879Z,100733.98
2019-03-31T01:26:14.936Z,100732.20
2019-03-31T01:26:46.101Z,100726.48
2019-03-31T01:27:17.443Z,100728.64
2019-03-31T01:27:48.689Z,100733.46
2019-03-31T01:28:19.913Z,100731.67
2019-03-31T01:28:51.133Z,100731.26
2019-03-31T01:29:22.354Z,100726.43
2019-03-31T01:29:53.619Z,100725.58
2019-03-31T01:30:25.249Z,100730.34
2019-03-31T01:30:56.500Z,100732.97
2019-03-31T01:31:28.655Z,100734.28
2019-03-31T01:32:00.126Z,100722.42
2019-03-31T01:32:31.280Z,100711.28
2019-03-31T01:33:02.582Z,100722.42
2019-03-31T01:33:33.757Z,100718.08
2019-03-31T01:34:05.070Z,100717.60
2019-03-31T01:34:36.280Z,100721.95
2019-03-31T01:35:07.805Z,100721.95
2019-03-31T01:35:38.950Z,100724.58
2019-03-31T01:36:10.276Z,100723.72
2019-03-31T01:36:41.439Z,100727.20
2019-03-31T01:37:13.135Z,100723.25
2019-03-31T01:37:44.287Z,100725.45
2019-03-31T01:38:15.481Z,100716.70
2019-03-31T01:38:49.679Z,100725.03
2019-03-31T01:39:23.789Z,100719.78
2019-03-31T01:39:55.020Z,100723.72
2019-03-31T01:40:26.165Z,100729.80
2019-03-31T01:40:57.371Z,100705.55
2019-03-31T01:41:28.568Z,100705.55
2019-03-31T01:41:59.722Z,100704.72
2019-03-31T01:42:32.776Z,100732.97
2019-03-31T01:43:03.970Z,100722.84
2019-03-31T01:43:35.129Z,100726.34
2019-03-31T01:44:06.310Z,100727.19
2019-03-31T01:44:37.473Z,100727.55
2019-03-31T01:45:08.683Z,100731.47
2019-03-31T01:45:39.837Z,100731.36
2019-03-31T01:46:12.445Z,100721.58
2019-03-31T01:46:43.587Z,100724.66
2019-03-31T01:47:16.676Z,100732.48
2019-03-31T01:47:47.837Z,100733.28
2019-03-31T01:48:19.033Z,100733.62
2019-03-31T01:48:50.277Z,100733.16
2019-03-31T01:49:21.473Z,100738.38
2019-03-31T01:49:52.723Z,100735.29
2019-03-31T01:50:24.221Z,100737.36
2019-03-31T01:50:55.411Z,100741.35
2019-03-31T01:51:26.617Z,100744.34
2019-03-31T01:51:57.865Z,100746.91
2019-03-31T01:52:29.067Z,100742.53
2019-03-31T01:53:00.222Z,100745.10
2019-03-31T01:53:31.438Z,100747.72
2019-03-31T01:54:02.877Z,100745.10
2019-03-31T01:54:34.088Z,100737.63
2019-03-31T01:55:05.327Z,100748.06
2019-03-31T01:55:36.530Z,100746.75
2019-03-31T01:56:07.684Z,100742.77
2019-03-31T01:56:38.897Z,100748.43
2019-03-31T01:57:10.068Z,100751.94
2019-03-31T01:57:41.222Z,100741.44
2019-03-31T01:58:12.400Z,100740.12
2019-03-31T01:58:43.629Z,100745.37
2019-03-31T01:59:14.872Z,100755.85
2019-03-31T01:59:46.104Z,100746.20
2019-03-31T02:00:35.496Z,100746.20
2019-03-31T02:01:17.360Z,100744.89
2019-03-31T02:01:48.600Z,100754.07
2019-03-31T02:02:27.191Z,100739.95
2019-03-31T02:02:58.346Z,100751.38
2019-03-31T02:03:29.541Z,100751.38
2019-03-31T02:04:00.697Z,100743.05
2019-03-31T02:04:31.915Z,100743.05
2019-03-31T02:05:06.017Z,100747.44
2019-03-31T02:05:38.179Z,100746.13
2019-03-31T02:06:09.365Z,100740.89
2019-03-31T02:06:40.533Z,100745.23
2019-03-31T02:07:11.703Z,100742.20
2019-03-31T02:07:42.875Z,100745.23
2019-03-31T02:08:14.081Z,100743.45
2019-03-31T02:08:45.319Z,100737.27
2019-03-31T02:09:16.498Z,100740.36
2019-03-31T02:09:47.681Z,100736.43
2019-03-31T02:10:18.851Z,100738.22
2019-03-31T02:10:50.131Z,100738.22
2019-03-31T02:11:21.330Z,100736.02
2019-03-31T02:11:52.486Z,100737.80
2019-03-31T02:12:23.653Z,100743.05
2019-03-31T02:12:54.885Z,100740.02
2019-03-31T02:13:26.037Z,100742.69
2019-03-31T02:13:57.233Z,100745.31
2019-03-31T02:14:28.375Z,100735.72
2019-03-31T02:14:59.575Z,100741.44
2019-03-31T02:15:30.735Z,100745.39
2019-03-31T02:16:01.938Z,100744.55
2019-03-31T02:16:33.111Z,100740.62
2019-03-31T02:17:04.312Z,100739.36
2019-03-31T02:17:35.493Z,100732.34
2019-03-31T02:18:07.235Z,100733.17
2019-03-31T02:18:38.492Z,100728.90
2019-03-31T02:19:09.751Z,100735.02
2019-03-31T02:19:40.989Z,100740.27
2019-03-31T02:20:12.214Z,100735.03
2019-03-31T02:20:43.443Z,100740.27
2019-03-31T02:21:14.656Z,100738.13
2019-03-31T02:21:45.926Z,100738.55
2019-03-31T02:22:17.158Z,100733.38
2019-03-31T02:22:49.399Z,100733.38
2019-03-31T02:23:20.561Z,100734.69
2019-03-31T02:23:51.764Z,100728.19
2019-03-31T02:24:22.902Z,100726.88
2019-03-31T02:24:54.123Z,100732.17
2019-03-31T02:25:25.352Z,100729.97
2019-03-31T02:25:56.575Z,100733.50
2019-03-31T02:26:27.981Z,100733.50
2019-03-31T02:26:59.590Z,100725.22
2019-03-31T02:27:30.781Z,100731.83
2019-03-31T02:28:01.999Z,100727.89
2019-03-31T02:28:33.168Z,100727.89
2019-03-31T02:29:04.389Z,100721.34
2019-03-31T02:29:35.545Z,100721.34
2019-03-31T02:30:06.851Z,100723.12
2019-03-31T02:30:38.043Z,100723.12
2019-03-31T02:31:09.296Z,100721.81
2019-03-31T02:31:40.448Z,100725.27
2019-03-31T02:32:23.222Z,100702.27
2019-03-31T02:32:44.945Z,100726.58
2019-03-31T02:33:16.196Z,100719.91
2019-03-31T02:33:48.429Z,100730.05
2019-03-31T02:34:19.747Z,100722.55
2019-03-31T02:34:51.005Z,100723.42
2019-03-31T02:35:22.254Z,100719.48
2019-03-31T02:35:53.493Z,100719.48
2019-03-31T02:36:25.033Z,100723.84
2019-03-31T02:36:56.264Z,100713.59
2019-03-31T02:37:27.523Z,100722.95
2019-03-31T02:38:00.688Z,100721.58
2019-03-31T02:38:31.833Z,100722.00
2019-03-31T02:39:03.932Z,100720.69
2019-03-31T02:39:35.297Z,100719.85
2019-03-31T02:40:06.472Z,100722.47
2019-03-31T02:40:37.656Z,100720.74
2019-03-31T02:41:08.796Z,100719.85
2019-03-31T02:41:39.953Z,100707.44
2019-03-31T02:42:11.125Z,100722.11
2019-03-31T02:42:42.310Z,100723.84
2019-03-31T02:43:13.482Z,100715.55
2019-03-31T02:43:44.674Z,100719.06
2019-03-31T02:44:15.842Z,100715.99
2019-03-31T02:44:47.026Z,100713.84
2019-03-31T02:45:18.191Z,100711.64
2019-03-31T02:45:49.401Z,100713.42
2019-03-31T02:46:20.575Z,100700.12
2019-03-31T02:46:51.757Z,100716.52
2019-03-31T02:47:22.935Z,100699.72
2019-03-31T02:47:54.134Z,100722.23
2019-03-31T02:48:25.417Z,100717.88
2019-03-31T02:48:56.620Z,100719.63
2019-03-31T02:49:28.916Z,100719.63
2019-03-31T02:50:00.602Z,100717.01
2019-03-31T02:50:47.925Z,100717.01
2019-03-31T02:51:19.111Z,100720.10
2019-03-31T02:51:50.296Z,100717.97
2019-03-31T02:52:21.472Z,100717.97
2019-03-31T02:52:52.648Z,100718.86
2019-03-31T02:53:23.875Z,100720.68
2019-03-31T02:53:55.025Z,100717.55
2019-03-31T02:54:26.216Z,100711.89
2019-03-31T02:54:57.368Z,100714.59
2019-03-31T02:55:28.583Z,100706.08
2019-03-31T02:55:59.744Z,100702.23
2019-03-31T02:56:30.941Z,100714.18
2019-03-31T02:57:02.784Z,100702.99
2019-03-31T02:57:33.991Z,100702.99
2019-03-31T02:58:05.179Z,100728.20
2019-03-31T02:58:36.396Z,100724.69
2019-03-31T02:59:07.811Z,100730.38
2019-03-31T02:59:39.153Z,100729.48
2019-03-31T03:00:10.375Z,100734.31
2019-03-31T03:00:41.698Z,100734.31
2019-03-31T03:01:13.126Z,100731.22
2019-03-31T03:01:45.885Z,100731.55
2019-03-31T03:02:17.103Z,100712.11
2019-03-31T03:02:48.352Z,100732.48
2019-03-31T03:03:19.593Z,100732.48
2019-03-31T03:03:50.850Z,100728.80
2019-03-31T03:04:22.078Z,100736.78
2019-03-31T03:04:53.314Z,100709.84
2019-03-31T03:05:24.791Z,100709.84
2019-03-31T03:05:56.027Z,100728.44
2019-03-31T03:06:27.259Z,100723.22
2019-03-31T03:06:59.303Z,100727.59
2019-03-31T03:07:30.828Z,100728.04
2019-03-31T03:08:02.063Z,100728.55
2019-03-31T03:08:33.357Z,100735.10
2019-03-31T03:09:05.242Z,100725.08
2019-03-31T03:09:36.470Z,100733.00
2019-03-31T03:10:07.655Z,100729.52
2019-03-31T03:10:39.909Z,100734.33
2019-03-31T03:11:12.159Z,100730.45
2019-03-31T03:11:43.355Z,100732.66
2019-03-31T03:12:14.497Z,100733.98
2019-03-31T03:12:45.708Z,100736.61
2019-03-31T03:13:16.864Z,100738.81
2019-03-31T03:13:48.057Z,100726.54
2019-03-31T03:14:19.238Z,100733.62
2019-03-31T03:14:50.566Z,100726.17
2019-03-31T03:15:28.458Z,100734.04
2019-03-31T03:16:13.968Z,100731.89
2019-03-31T03:16:45.185Z,100725.33
2019-03-31T03:17:16.404Z,100731.48
2019-03-31T03:17:47.673Z,100728.86
2019-03-31T03:18:18.852Z,100714.30
2019-03-31T03:18:50.052Z,100727.08
2019-03-31T03:19:22.242Z,100731.02
2019-03-31T03:19:53.487Z,100729.69
2019-03-31T03:20:25.018Z,100730.16
2019-03-31T03:20:56.279Z,100712.81
2019-03-31T03:21:27.479Z,100712.81
2019-03-31T03:21:58.762Z,100708.46
2019-03-31T03:22:29.966Z,100696.02
2019-03-31T03:23:01.102Z,100720.38
2019-03-31T03:23:32.322Z,100730.16
2019-03-31T03:24:03.517Z,100736.31
2019-03-31T03:24:34.805Z,100733.27
2019-03-31T03:25:05.958Z,100711.55
2019-03-31T03:25:54.527Z,100735.55
2019-03-31T03:26:10.208Z,100730.30
2019-03-31T03:26:41.557Z,100736.06
2019-03-31T03:27:12.700Z,100734.30
2019-03-31T03:27:43.922Z,100740.44
2019-03-31T03:28:15.080Z,100734.77
2019-03-31T03:28:46.280Z,100735.66
2019-03-31T03:29:17.461Z,100736.97
2019-03-31T03:29:48.642Z,100739.59
2019-03-31T03:30:20.984Z,100741.80
2019-03-31T03:30:52.365Z,100743.95
2019-03-31T03:31:23.682Z,100742.17
2019-03-31T03:31:55.006Z,100737.80
2019-03-31T03:32:26.273Z,100737.80
2019-03-31T03:33:14.922Z,100725.33
2019-03-31T03:33:30.545Z,100729.76
2019-03-31T03:34:01.799Z,100743.48
2019-03-31T03:34:33.076Z,100741.75
2019-03-31T03:35:04.292Z,100742.22
2019-03-31T03:35:35.454Z,100745.31
2019-03-31T03:36:06.642Z,100744.84
2019-03-31T03:36:37.809Z,100742.64
2019-03-31T03:37:08.979Z,100745.25
2019-03-31T03:37:40.163Z,100726.71
2019-03-31T03:38:11.344Z,100748.29
2019-03-31T03:38:42.536Z,100746.45
2019-03-31T03:39:13.714Z,100749.97
2019-03-31T03:39:44.893Z,100752.12
2019-03-31T03:40:16.065Z,100744.70
2019-03-31T03:40:47.262Z,100728.25
2019-03-31T03:41:18.410Z,100749.97
2019-03-31T03:41:49.707Z,100747.77
2019-03-31T03:42:20.895Z,100752.59
2019-03-31T03:42:52.095Z,100750.39
2019-03-31T03:43:23.234Z,100750.79
2019-03-31T03:43:57.083Z,100749.00
2019-03-31T03:44:27.518Z,100750.31
2019-03-31T03:44:58.713Z,100738.39
2019-03-31T03:45:29.995Z,100742.92
2019-03-31T03:46:01.176Z,100724.69
2019-03-31T03:46:32.435Z,100752.09
2019-03-31T03:47:03.712Z,100749.00
2019-03-31T03:47:34.902Z,100751.20
2019-03-31T03:48:06.072Z,100748.16
2019-03-31T03:48:37.257Z,100747.22
2019-03-31T03:49:08.475Z,100748.94
2019-03-31T03:49:39.716Z,100751.55
2019-03-31T03:50:10.875Z,100749.77
2019-03-31T03:50:42.089Z,100748.05
2019-03-31T03:51:13.241Z,100752.81
2019-03-31T03:51:44.447Z,100748.83
2019-03-31T03:52:15.604Z,100748.83
2019-03-31T03:52:46.836Z,100748.81
2019-03-31T03:53:17.991Z,100752.27
2019-03-31T03:53:49.198Z,100755.30
2019-03-31T03:54:21.327Z,100747.38
2019-03-31T03:54:52.678Z,100745.08
2019-03-31T03:55:23.927Z,100744.19
2019-03-31T03:55:55.429Z,100752.88
2019-03-31T03:56:29.097Z,100748.03
2019-03-31T03:56:59.770Z,100750.18
2019-03-31T03:57:31.013Z,100739.52
2019-03-31T03:58:02.220Z,100751.48
2019-03-31T03:58:33.367Z,100749.29
2019-03-31T03:59:04.566Z,100756.68
2019-03-31T03:59:35.744Z,100751.44
2019-03-31T04:00:07.054Z,100750.59
2019-03-31T04:00:38.209Z,100748.81
2019-03-31T04:01:11.321Z,100749.23
2019-03-31T04:01:42.481Z,100751.38
2019-03-31T04:02:13.709Z,100752.25
2019-03-31T04:02:44.863Z,100750.95
2019-03-31T04:03:30.042Z,100751.86
2019-03-31T04:03:49.124Z,100754.89
2019-03-31T04:04:20.311Z,100753.51
2019-03-31T04:04:51.491Z,100757.45
2019-03-31T04:05:22.736Z,100755.22
2019-03-31T04:05:53.967Z,100749.51
2019-03-31T04:06:25.446Z,100758.68
2019-03-31T04:06:56.696Z,100757.31
2019-03-31T04:07:28.012Z,100760.77
2019-03-31T04:07:59.346Z,100756.82
2019-03-31T04:08:30.580Z,100759.39
2019-03-31T04:09:01.804Z,100755.85
2019-03-31T04:09:34.116Z,100757.58
2019-03-31T04:10:27.414Z,100734.49
2019-03-31T04:11:12.128Z,100734.49
2019-03-31T04:11:43.435Z,100749.17
2019-03-31T04:12:14.741Z,100729.20
2019-03-31T04:12:46.012Z,100729.20
2019-03-31T04:13:17.255Z,100753.47
2019-03-31T04:13:48.436Z,100751.68
2019-03-31T04:14:19.642Z,100751.23
2019-03-31T04:14:50.817Z,100756.43
2019-03-31T04:15:22.051Z,100756.43
2019-03-31T04:15:53.226Z,100754.64
2019-03-31T04:16:24.432Z,100754.17
2019-03-31T04:16:55.582Z,100754.63
2019-03-31T04:17:26.794Z,100727.20
2019-03-31T04:17:57.931Z,100755.04
2019-03-31T04:18:29.129Z,100758.50
2019-03-31T04:19:00.318Z,100754.56
2019-03-31T04:19:31.498Z,100762.42
2019-03-31T04:20:03.875Z,100754.09
2019-03-31T04:20:39.107Z,100761.17
2019-03-31T04:21:08.140Z,100754.17
2019-03-31T04:21:39.323Z,100759.88
2019-03-31T04:22:10.486Z,100751.55
2019-03-31T04:22:41.658Z,100757.69
2019-03-31T04:23:12.842Z,100755.95
2019-03-31T04:23:44.024Z,100757.27
2019-03-31T04:24:16.217Z,100752.78
2019-03-31T04:24:47.483Z,100758.16
2019-03-31T04:25:18.672Z,100750.71
2019-03-31T04:25:49.855Z,100752.00
2019-03-31T04:26:21.035Z,100753.33
2019-03-31T04:26:52.253Z,100748.52
2019-03-31T04:27:23.452Z,100753.81
2019-03-31T04:27:54.624Z,100757.32
2019-03-31T04:28:25.798Z,100749.82
2019-03-31T04:28:56.987Z,100749.82
2019-03-31T04:29:28.330Z,100737.88
2019-03-31T04:29:59.529Z,100748.98
2019-03-31T04:30:30.726Z,100751.55
2019-03-31T04:31:01.906Z,100750.23
2019-03-31T04:31:33.088Z,100751.12
2019-03-31T04:32:04.371Z,100752.00
2019-03-31T04:32:38.753Z,100749.88
2019-03-31T04:33:08.774Z,100752.09
2019-03-31T04:33:50.423Z,100747.75
2019-03-31T04:34:13.067Z,100745.67
2019-03-31T04:34:44.266Z,100745.67
2019-03-31T04:35:15.465Z,100753.66
2019-03-31T04:35:46.663Z,100753.67
2019-03-31T04:36:17.868Z,100753.67
2019-03-31T04:36:49.004Z,100754.98
2019-03-31T04:37:20.228Z,100743.03
2019-03-31T04:37:51.386Z,100755.53
2019-03-31T04:38:22.593Z,100750.29
2019-03-31T04:38:53.751Z,100756.89
2019-03-31T04:39:25.179Z,100753.91
2019-03-31T04:39:56.419Z,100753.91
2019-03-31T04:40:27.842Z,100736.22
2019-03-31T04:40:59.089Z,100751.78
2019-03-31T04:41:30.331Z,100759.23
2019-03-31T04:42:01.554Z,100756.63
2019-03-31T04:42:32.785Z,100754.45
2019-03-31T04:43:04.109Z,100760.13
2019-03-31T04:43:35.342Z,100758.34
2019-03-31T04:44:06.570Z,100761.43
2019-03-31T04:44:39.753Z,100762.69
2019-03-31T04:45:10.922Z,100762.69
2019-03-31T04:45:42.125Z,100763.11
2019-03-31T04:46:13.266Z,100757.86
2019-03-31T04:46:45.454Z,100758.75
2019-03-31T04:47:16.606Z,100761.85
2019-03-31T04:47:47.813Z,100767.52
2019-03-31T04:48:18.963Z,100762.27
2019-03-31T04:48:50.165Z,100755.72
2019-03-31T04:49:21.335Z,100765.25
2019-03-31T04:49:52.537Z,100758.28
2019-03-31T04:50:23.718Z,100762.69
2019-03-31T04:50:56.053Z,100766.63
2019-03-31T04:51:27.198Z,100767.88
2019-03-31T04:51:58.579Z,100764.83
2019-03-31T04:52:29.720Z,100769.64
2019-03-31T04:53:00.922Z,100770.08
2019-03-31T04:53:32.077Z,100776.69
2019-03-31T04:54:03.394Z,100781.03
2019-03-31T04:54:34.532Z,100773.17
2019-03-31T04:55:05.742Z,100776.63
2019-03-31T04:55:36.898Z,100773.59
2019-03-31T04:56:08.144Z,100772.28
2019-03-31T04:56:39.369Z,100777.11
2019-03-31T04:57:10.647Z,100766.36
2019-03-31T04:57:43.036Z,100775.30
2019-03-31T04:58:14.290Z,100777.05
2019-03-31T04:58:45.512Z,100771.81
2019-03-31T04:59:16.833Z,100775.30
2019-03-31T04:59:50.898Z,100774.83
2019-03-31T05:00:22.138Z,100773.05
2019-03-31T05:00:53.360Z,100778.28
2019-03-31T05:01:24.500Z,100780.83
2019-03-31T05:01:55.698Z,100782.50
2019-03-31T05:02:27.437Z,100779.88
2019-03-31T05:02:58.763Z,100780.70
2019-03-31T05:03:29.917Z,100779.75
2019-03-31T05:04:05.025Z,100784.13
2019-03-31T05:04:34.180Z,100787.17
2019-03-31T05:05:05.376Z,100783.13
2019-03-31T05:05:36.570Z,100785.31
2019-03-31T05:06:07.828Z,100783.52
2019-03-31T05:06:38.965Z,100780.43
2019-03-31T05:07:10.181Z,100787.45
2019-03-31T05:07:41.331Z,100770.97
2019-03-31T05:08:12.532Z,100790.42
2019-03-31T05:08:43.709Z,100788.58
2019-03-31T05:09:14.914Z,100786.37
2019-03-31T05:09:46.047Z,100788.98
2019-03-31T05:10:17.229Z,100784.62
2019-03-31T05:10:48.405Z,100790.30
2019-03-31T05:11:19.609Z,100792.09
2019-03-31T05:11:50.802Z,100787.24
2019-03-31T05:12:21.968Z,100782.30
2019-03-31T05:12:53.152Z,100787.05
2019-03-31T05:13:24.321Z,100786.13
2019-03-31T05:13:57.404Z,100790.36
2019-03-31T05:14:28.573Z,100787.66
2019-03-31T05:14:59.742Z,100785.86
2019-03-31T05:15:30.932Z,100788.36
2019-03-31T05:16:02.315Z,100786.55
2019-03-31T05:16:33.625Z,100791.30
2019-03-31T05:17:04.806Z,100795.10
2019-03-31T05:17:36.113Z,100788.00
2019-03-31T05:18:07.358Z,100794.10
2019-03-31T05:18:38.561Z,100797.55
2019-03-31T05:19:09.744Z,100797.55
2019-03-31T05:19:40.913Z,100792.67
2019-03-31T05:20:12.108Z,100793.48
2019-03-31T05:20:43.270Z,100792.11
2019-03-31T05:21:14.450Z,100796.37
2019-03-31T05:21:45.672Z,100796.37
2019-03-31T05:22:16.906Z,100791.13
2019-03-31T05:22:48.100Z,100796.79
2019-03-31T05:23:19.362Z,100787.88
2019-03-31T05:23:50.552Z,100797.69
2019-03-31T05:24:21.736Z,100800.72
2019-03-31T05:24:52.914Z,100804.64
2019-03-31T05:25:24.067Z,100802.03
2019-03-31T05:25:55.606Z,100804.58
2019-03-31T05:26:26.783Z,100804.58
2019-03-31T05:26:57.954Z,100808.91
2019-03-31T05:27:29.115Z,100803.61
2019-03-31T05:28:00.311Z,100809.27
2019-03-31T05:28:31.819Z,100813.64
2019-03-31T05:29:03.019Z,100789.36
2019-03-31T05:29:34.207Z,100811.88
2019-03-31T05:30:05.393Z,100792.07
2019-03-31T05:30:36.567Z,100807.59
2019-03-31T05:31:07.762Z,100813.31
2019-03-31T05:31:40.815Z,100786.83
2019-03-31T05:32:12.031Z,100786.83
2019-03-31T05:32:43.176Z,100805.89
2019-03-31T05:33:15.201Z,100814.64
2019-03-31T05:33:46.356Z,100799.73
2019-03-31T05:34:19.753Z,100808.09
2019-03-31T05:34:51.028Z,100808.57
2019-03-31T05:35:22.216Z,100809.47
2019-03-31T05:35:53.368Z,100815.18
2019-03-31T05:36:24.866Z,100813.04
2019-03-31T05:36:56.029Z,100812.59
2019-03-31T05:37:27.228Z,100813.06
2019-03-31T05:37:58.380Z,100824.02
2019-03-31T05:38:29.604Z,100816.22
2019-03-31T05:39:00.729Z,100816.22
2019-03-31T05:39:31.940Z,100815.74
2019-03-31T05:40:03.812Z,100817.47
2019-03-31T05:40:35.988Z,100817.47
2019-03-31T05:41:07.170Z,100813.39
2019-03-31T05:41:38.422Z,100816.30
2019-03-31T05:42:09.582Z,100800.24
2019-03-31T05:42:40.778Z,100800.24
2019-03-31T05:43:11.964Z,100818.45
2019-03-31T05:43:43.180Z,100819.81
2019-03-31T05:44:14.328Z,100817.20
2019-03-31T05:44:45.545Z,100819.84
2019-03-31T05:45:16.712Z,100804.38
2019-03-31T05:45:47.932Z,100804.38
2019-03-31T05:46:19.108Z,100799.70
2019-03-31T05:46:50.354Z,100818.40
2019-03-31T05:47:22.616Z,100818.40
2019-03-31T05:47:53.855Z,100821.55
2019-03-31T05:48:25.452Z,100817.65
2019-03-31T05:48:56.676Z,100815.56
2019-03-31T05:49:27.975Z,100802.63
2019-03-31T05:49:59.193Z,100824.34
2019-03-31T05:50:30.439Z,100823.09
2019-03-31T05:51:01.693Z,100821.39
2019-03-31T05:51:32.939Z,100817.88
2019-03-31T05:52:04.104Z,100820.08
2019-03-31T05:52:35.326Z,100824.06
2019-03-31T05:53:06.485Z,100819.72
2019-03-31T05:53:37.698Z,100822.81
2019-03-31T05:54:08.857Z,100823.23
2019-03-31T05:54:40.071Z,100816.48
2019-03-31T05:55:11.221Z,100830.67
2019-03-31T05:55:42.442Z,100836.36
2019-03-31T05:56:13.586Z,100834.60
2019-03-31T05:56:44.793Z,100827.58
2019-03-31T05:57:15.937Z,100827.59
2019-03-31T05:57:47.147Z,100828.97
2019-03-31T05:58:18.297Z,100826.34
2019-03-31T05:58:49.508Z,100825.93
2019-03-31T05:59:20.650Z,100828.55
2019-03-31T05:59:51.867Z,100832.06